Galway Lake, New York
Current Conditions -  °F | °C
As of 10:55 AM on Saturday 25 Oct 2014 (Local Time) from KNY0 Reporting Station
Broken Clouds Broken Clouds  
Wind Chill: 50°   Ceiling: 2500
Heat Index: 50°   Visibility: 7mi
Dew Point: 44°   Wind: 9mph
Humidity: 79%   Direction: 270°W
Pressure: 29.79"   Gusts: NA
Location:  43.0744°N, 74.1473°W
Report Text: KNY0 251455Z AUTO 27008KT 7SM BKN025 BKN031 10/07 A2979 RMK AO2 T01020067
Loading
Personal Weather Stations






























Interactive Weather Map
Tropical Storm Tracking
New forecast layout! Learn more

10-Day Weather Forecast

Advertisements
Track Severe Weather on mobile